Aeropuerto de Asturias

latitud = 43° 34' 01''N | longitud = 006° 02' 39''W
127 metros sobre el nivel del mar | datos mensuales

Fecha, hora, temperatura, viento dirección y velocidad, humedad y presión.

  • 22-11-2017 09:00:00 | 10.30°C | Sur |10.00 km/h | 56.00% | 992.80 hPa
  • 22-11-2017 08:00:00 | 9.30°C | Sudoeste |10.00 km/h | 57.00% | 993.50 hPa
  • 22-11-2017 07:00:00 | 8.90°C | Sudoeste |8.00 km/h | 58.00% | 993.90 hPa
  • 22-11-2017 06:00:00 | 12.10°C | Sudoeste |12.00 km/h | 44.00% | 994.20 hPa
  • 22-11-2017 05:00:00 | 8.50°C | Sur |14.00 km/h | 60.00% | 994.50 hPa
  • 22-11-2017 04:00:00 | 11.80°C | Sur |13.00 km/h | 44.00% | 995.60 hPa
  • 22-11-2017 03:00:00 | 9.90°C | Sudoeste |22.00 km/h | 55.00% | 996.30 hPa
  • 22-11-2017 02:00:00 | 10.00°C | Sudoeste |22.00 km/h | 56.00% | 997.10 hPa
  • 22-11-2017 01:00:00 | 10.40°C | Sudoeste |22.00 km/h | 56.00% | 997.80 hPa
  • 22-11-2017 00:00:00 | 10.50°C | Sur |19.00 km/h | 60.00% | 998.40 hPa
  • 21-11-2017 23:00:00 | 11.40°C | Sudoeste |21.00 km/h | 59.00% | 999.00 hPa
  • 21-11-2017 22:00:00 | 11.60°C | Sur |15.00 km/h | 64.00% | 999.70 hPa
  • 21-11-2017 21:00:00 | 12.40°C | Sudoeste |19.00 km/h | 65.00% | 1000.00 hPa
  • 21-11-2017 20:00:00 | 13.80°C | Sur |14.00 km/h | 61.00% | 1000.40 hPa
  • 21-11-2017 19:00:00 | 11.70°C | Sur |12.00 km/h | 76.00% | 1000.60 hPa
  • 21-11-2017 18:00:00 | 12.80°C | Sudeste |8.00 km/h | 75.00% | 1000.90 hPa
  • 21-11-2017 17:00:00 | 17.10°C | Calma |0.00 km/h | 62.00% | 1001.20 hPa
  • 21-11-2017 16:00:00 | 18.60°C | Sudeste |2.00 km/h | 57.00% | 1001.30 hPa
  • 21-11-2017 15:00:00 | 20.30°C | Calma |0.00 km/h | 47.00% | 1001.80 hPa
  • 21-11-2017 14:00:00 | 19.50°C | Sur |3.00 km/h | 41.00% | 1002.50 hPa
  • 21-11-2017 13:00:00 | 17.10°C | Sur |15.00 km/h | 39.00% | 1003.30 hPa
  • 21-11-2017 12:00:00 | 14.10°C | Sudoeste |17.00 km/h | 48.00% | 1004.20 hPa
  • 21-11-2017 11:00:00 | 11.30°C | Sudoeste |18.00 km/h | 53.00% | 1004.70 hPa
  • 21-11-2017 10:00:00 | 10.10°C | Sudoeste |22.00 km/h | 55.00% | 1004.70 hPa